createdAt,value
2022-09-09T00:01:32.680Z,12.80
2022-09-09T00:04:06.661Z,12.80
2022-09-09T00:06:38.079Z,12.90
2022-09-09T00:09:14.479Z,12.90
2022-09-09T00:11:48.910Z,12.80
2022-09-09T00:14:25.537Z,12.80
2022-09-09T00:17:01.116Z,12.80
2022-09-09T00:19:38.855Z,12.90
2022-09-09T00:22:18.326Z,12.80
2022-09-09T00:24:48.891Z,12.90
2022-09-09T00:27:28.225Z,12.80
2022-09-09T00:30:01.253Z,12.80
2022-09-09T00:32:36.783Z,12.80
2022-09-09T00:35:17.424Z,12.80
2022-09-09T00:37:46.869Z,12.80
2022-09-09T00:40:25.046Z,12.80
2022-09-09T00:43:05.191Z,12.80
2022-09-09T00:46:03.300Z,12.80
2022-09-09T00:48:40.202Z,12.70
2022-09-09T00:51:17.165Z,12.80
2022-09-09T00:54:04.127Z,12.70
2022-09-09T00:56:43.392Z,12.70
2022-09-09T00:59:28.563Z,12.70
2022-09-09T01:01:58.342Z,12.70
2022-09-09T01:04:37.325Z,12.70
2022-09-09T01:07:17.520Z,12.70
2022-09-09T01:09:56.579Z,12.70
2022-09-09T01:12:35.820Z,12.70
2022-09-09T01:15:12.819Z,12.70
2022-09-09T01:17:54.415Z,12.60
2022-09-09T01:20:28.108Z,12.70
2022-09-09T01:23:32.967Z,12.60
2022-09-09T01:26:37.687Z,12.60
2022-09-09T01:29:12.292Z,12.60
2022-09-09T01:31:53.697Z,12.60
2022-09-09T01:34:23.892Z,12.60
2022-09-09T01:36:58.489Z,12.60
2022-09-09T01:39:28.273Z,12.60
2022-09-09T01:42:07.023Z,12.60
2022-09-09T01:44:36.996Z,12.60
2022-09-09T01:47:07.077Z,12.60
2022-09-09T01:49:37.534Z,12.70
2022-09-09T01:52:13.280Z,12.70
2022-09-09T01:54:41.943Z,12.80
2022-09-09T01:57:23.483Z,12.80
2022-09-09T02:00:07.352Z,12.90
2022-09-09T02:02:51.324Z,12.90
2022-09-09T02:05:38.223Z,13.00
2022-09-09T02:08:17.649Z,12.90
2022-09-09T02:10:58.799Z,12.90
2022-09-09T02:13:43.134Z,12.90
2022-09-09T02:16:18.985Z,12.90
2022-09-09T02:18:53.621Z,12.90
2022-09-09T02:21:29.920Z,12.90
2022-09-09T02:24:01.403Z,12.90
2022-09-09T02:26:32.589Z,13.00
2022-09-09T02:29:10.879Z,13.00
2022-09-09T02:31:40.678Z,13.00
2022-09-09T02:34:19.087Z,13.10
2022-09-09T02:36:49.299Z,13.20
2022-09-09T02:39:17.990Z,13.20
2022-09-09T02:41:46.711Z,13.20
2022-09-09T02:44:18.926Z,13.20
2022-09-09T02:47:14.020Z,13.20
2022-09-09T02:49:57.208Z,13.20
2022-09-09T02:52:45.010Z,13.20
2022-09-09T02:55:22.476Z,13.30
2022-09-09T02:57:54.296Z,13.30
2022-09-09T03:00:29.775Z,13.40
2022-09-09T03:03:02.472Z,13.50
2022-09-09T03:05:30.951Z,13.50
2022-09-09T03:07:59.695Z,13.60
2022-09-09T03:10:28.284Z,13.70
2022-09-09T03:12:57.927Z,13.70
2022-09-09T03:15:31.366Z,13.70
2022-09-09T03:18:01.863Z,13.70
2022-09-09T03:20:32.755Z,13.60
2022-09-09T03:23:03.617Z,13.60
2022-09-09T03:25:33.081Z,13.60
2022-09-09T03:28:02.299Z,13.60
2022-09-09T03:30:32.323Z,13.60
2022-09-09T03:33:00.776Z,13.60
2022-09-09T03:35:34.076Z,13.60
2022-09-09T03:38:03.039Z,13.60
2022-09-09T03:40:34.313Z,13.60
2022-09-09T03:43:02.775Z,13.70
2022-09-09T03:45:32.888Z,13.70
2022-09-09T03:48:02.068Z,13.70
2022-09-09T03:50:33.211Z,13.80
2022-09-09T03:53:01.639Z,13.70
2022-09-09T03:55:30.299Z,13.80
2022-09-09T03:57:58.828Z,13.80
2022-09-09T04:00:27.716Z,13.80
2022-09-09T04:02:58.737Z,13.80
2022-09-09T04:05:28.313Z,13.80
2022-09-09T04:07:56.858Z,13.80
2022-09-09T04:10:26.166Z,13.80
2022-09-09T04:12:56.493Z,13.80
2022-09-09T04:15:24.984Z,13.80
2022-09-09T04:17:53.636Z,13.80
2022-09-09T04:20:23.658Z,13.80
2022-09-09T04:22:52.062Z,13.90
2022-09-09T04:25:20.494Z,13.90
2022-09-09T04:27:50.063Z,13.90
2022-09-09T04:30:19.097Z,13.90
2022-09-09T04:32:47.983Z,13.90
2022-09-09T04:35:16.853Z,14.00
2022-09-09T04:37:46.862Z,14.00
2022-09-09T04:40:16.075Z,14.00
2022-09-09T04:42:45.903Z,14.00
2022-09-09T04:45:16.427Z,14.00
2022-09-09T04:47:44.856Z,14.00
2022-09-09T04:50:13.483Z,14.10
2022-09-09T04:52:42.872Z,14.10
2022-09-09T04:55:14.044Z,14.10
2022-09-09T04:57:45.932Z,14.10
2022-09-09T05:00:15.898Z,14.20
2022-09-09T05:02:44.724Z,14.20
2022-09-09T05:05:13.367Z,14.30
2022-09-09T05:07:43.092Z,14.30
2022-09-09T05:10:14.430Z,14.40
2022-09-09T05:12:44.648Z,14.30
2022-09-09T05:15:13.723Z,14.30
2022-09-09T05:17:43.267Z,14.40
2022-09-09T05:20:17.169Z,14.40
2022-09-09T05:22:46.210Z,14.40
2022-09-09T05:25:16.201Z,14.50
2022-09-09T05:27:44.862Z,14.50
2022-09-09T05:30:13.995Z,14.60
2022-09-09T05:32:42.440Z,14.60
2022-09-09T05:35:11.791Z,14.70
2022-09-09T05:37:41.303Z,14.70
2022-09-09T05:40:12.204Z,14.80
2022-09-09T05:42:43.486Z,14.90
2022-09-09T05:45:12.570Z,14.90
2022-09-09T05:47:41.276Z,15.00
2022-09-09T05:50:14.033Z,15.10
2022-09-09T05:52:42.643Z,15.20
2022-09-09T05:55:11.331Z,15.20
2022-09-09T05:57:40.300Z,15.30
2022-09-09T06:00:13.298Z,15.40
2022-09-09T06:02:53.869Z,15.50
2022-09-09T06:05:24.000Z,15.60
2022-09-09T06:07:55.003Z,15.70
2022-09-09T06:10:24.710Z,15.80
2022-09-09T06:12:55.571Z,15.80
2022-09-09T06:15:25.766Z,15.90
2022-09-09T06:17:57.512Z,16.00
2022-09-09T06:20:26.689Z,16.10
2022-09-09T06:22:55.130Z,16.10
2022-09-09T06:25:23.603Z,16.20
2022-09-09T06:27:52.244Z,16.30
2022-09-09T06:30:20.741Z,16.40
2022-09-09T06:32:51.020Z,16.50
2022-09-09T06:35:19.870Z,16.60
2022-09-09T06:37:49.949Z,16.80
2022-09-09T06:40:20.569Z,17.00
2022-09-09T06:42:49.393Z,17.10
2022-09-09T06:45:26.367Z,17.20
2022-09-09T06:47:59.557Z,17.30
2022-09-09T06:50:28.155Z,17.50
2022-09-09T06:52:56.648Z,17.70
2022-09-09T06:55:25.665Z,18.00
2022-09-09T06:57:54.249Z,18.30
2022-09-09T07:00:25.516Z,18.60
2022-09-09T07:02:54.004Z,18.90
2022-09-09T07:05:24.654Z,19.20
2022-09-09T07:07:54.257Z,19.40
2022-09-09T07:10:23.431Z,19.60
2022-09-09T07:12:53.929Z,19.80
2022-09-09T07:15:24.662Z,19.90
2022-09-09T07:17:54.121Z,19.80
2022-09-09T07:20:24.389Z,19.70
2022-09-09T07:22:57.612Z,19.60
2022-09-09T07:25:27.821Z,19.60
2022-09-09T07:27:56.302Z,19.60
2022-09-09T07:30:27.794Z,19.70
2022-09-09T07:32:57.893Z,19.70
2022-09-09T07:35:28.122Z,19.70
2022-09-09T07:37:57.327Z,19.70
2022-09-09T07:40:26.091Z,19.70
2022-09-09T07:42:55.216Z,19.70
2022-09-09T07:45:23.863Z,19.60
2022-09-09T07:47:53.672Z,19.70
2022-09-09T07:50:22.451Z,19.80
2022-09-09T07:52:54.531Z,20.00
2022-09-09T07:55:25.032Z,20.20
2022-09-09T07:57:53.999Z,20.60
2022-09-09T08:00:23.224Z,21.00
2022-09-09T08:02:56.221Z,21.30
2022-09-09T08:05:25.639Z,21.50
2022-09-09T08:07:56.292Z,21.70
2022-09-09T08:10:25.404Z,21.70
2022-09-09T08:13:16.721Z,21.60
2022-09-09T08:15:45.596Z,21.50
2022-09-09T08:18:15.151Z,21.40
2022-09-09T08:20:43.799Z,21.40
2022-09-09T08:23:13.784Z,21.50
2022-09-09T08:25:42.220Z,21.60
2022-09-09T08:28:11.169Z,21.50
2022-09-09T08:30:40.061Z,21.50
2022-09-09T08:33:09.333Z,21.50
2022-09-09T08:35:37.815Z,21.50
2022-09-09T08:38:10.647Z,21.40
2022-09-09T08:40:46.662Z,21.40
2022-09-09T08:43:18.520Z,21.40
2022-09-09T08:45:56.563Z,21.40
2022-09-09T08:48:43.062Z,21.40
2022-09-09T08:51:12.529Z,21.40
2022-09-09T08:53:45.688Z,21.40
2022-09-09T08:56:19.334Z,21.50
2022-09-09T08:58:51.879Z,21.60
2022-09-09T09:01:42.278Z,21.70
2022-09-09T09:04:36.064Z,21.80
2022-09-09T09:07:15.049Z,21.90
2022-09-09T09:09:59.827Z,22.00
2022-09-09T09:12:37.625Z,22.10
2022-09-09T09:15:18.269Z,22.20
2022-09-09T09:17:46.868Z,22.40
2022-09-09T09:20:17.603Z,22.40
2022-09-09T09:22:51.729Z,22.60
2022-09-09T09:25:23.856Z,22.80
2022-09-09T09:28:02.244Z,23.00
2022-09-09T09:30:38.923Z,23.60
2022-09-09T09:33:19.878Z,24.00
2022-09-09T09:35:50.688Z,24.40
2022-09-09T09:41:13.941Z,24.70
2022-09-09T09:43:44.568Z,24.60
2022-09-09T09:46:26.502Z,24.50
2022-09-09T09:49:00.267Z,24.40
2022-09-09T09:51:33.321Z,24.40
2022-09-09T09:54:21.681Z,24.30
2022-09-09T09:56:55.001Z,24.40
2022-09-09T09:59:39.503Z,24.60
2022-09-09T10:02:19.569Z,24.80
2022-09-09T10:05:03.854Z,25.00
2022-09-09T10:07:34.944Z,25.10
2022-09-09T10:10:03.385Z,25.40
2022-09-09T10:12:46.394Z,25.60
2022-09-09T10:15:33.149Z,26.00
2022-09-09T10:18:14.161Z,26.40
2022-09-09T10:20:48.833Z,26.70
2022-09-09T10:23:31.986Z,26.60
2022-09-09T10:26:14.826Z,26.50
2022-09-09T10:29:01.993Z,26.20
2022-09-09T10:31:40.697Z,25.90
2022-09-09T10:34:19.579Z,25.70
2022-09-09T10:36:51.476Z,25.60
2022-09-09T10:39:40.552Z,25.70
2022-09-09T10:42:14.861Z,25.80
2022-09-09T10:45:05.811Z,26.00
2022-09-09T10:47:59.880Z,25.80
2022-09-09T10:51:00.687Z,25.90
2022-09-09T10:53:39.728Z,25.90
2022-09-09T10:56:12.039Z,26.00
2022-09-09T10:58:44.502Z,26.10
2022-09-09T11:01:18.855Z,26.10
2022-09-09T11:03:55.170Z,26.00
2022-09-09T11:06:29.242Z,25.80
2022-09-09T11:09:02.311Z,25.60
2022-09-09T11:11:35.569Z,25.60
2022-09-09T11:14:10.649Z,25.70
2022-09-09T11:16:44.378Z,25.80
2022-09-09T11:19:22.330Z,26.00
2022-09-09T11:21:53.073Z,26.30
2022-09-09T11:24:26.077Z,26.50
2022-09-09T11:26:59.714Z,26.70
2022-09-09T11:29:50.288Z,26.90
2022-09-09T11:32:37.033Z,27.10
2022-09-09T11:35:18.656Z,27.20
2022-09-09T11:38:05.243Z,27.10
2022-09-09T11:40:35.415Z,26.80
2022-09-09T11:43:07.033Z,26.70
2022-09-09T11:45:37.866Z,26.60
2022-09-09T11:48:08.050Z,26.60
2022-09-09T11:50:41.201Z,26.70
2022-09-09T11:53:24.910Z,26.80
2022-09-09T11:56:06.695Z,26.90
2022-09-09T11:58:46.373Z,26.80
2022-09-09T12:01:35.071Z,26.80
2022-09-09T12:04:33.269Z,26.70
2022-09-09T12:07:06.220Z,26.60
2022-09-09T12:09:47.536Z,26.80
2022-09-09T12:12:28.542Z,27.10
2022-09-09T12:15:04.236Z,27.20
2022-09-09T12:17:34.344Z,27.10
2022-09-09T12:20:08.334Z,27.00
2022-09-09T12:22:48.132Z,26.90
2022-09-09T12:25:25.373Z,26.90
2022-09-09T12:28:05.865Z,26.90
2022-09-09T12:30:39.610Z,26.90
2022-09-09T12:33:15.096Z,26.90
2022-09-09T12:35:45.753Z,26.80
2022-09-09T12:38:20.769Z,27.00
2022-09-09T12:40:56.984Z,27.20
2022-09-09T12:43:27.427Z,27.20
2022-09-09T12:46:01.627Z,26.90
2022-09-09T12:48:37.810Z,26.50
2022-09-09T12:51:20.494Z,25.70
2022-09-09T12:53:51.302Z,24.90
2022-09-09T12:56:26.136Z,24.20
2022-09-09T12:58:55.889Z,23.30
2022-09-09T13:01:26.636Z,22.50
2022-09-09T13:03:55.556Z,22.00
2022-09-09T13:06:29.763Z,21.20
2022-09-09T13:09:02.388Z,20.30
2022-09-09T13:11:36.401Z,19.50
2022-09-09T13:14:05.468Z,18.80
2022-09-09T13:16:41.935Z,18.30
2022-09-09T13:19:16.730Z,17.70
2022-09-09T13:21:45.735Z,17.30
2022-09-09T13:24:30.533Z,17.00
2022-09-09T13:27:01.330Z,16.70
2022-09-09T13:29:30.746Z,16.70
2022-09-09T13:32:07.407Z,16.70
2022-09-09T13:34:37.560Z,16.80
2022-09-09T13:37:08.617Z,17.10
2022-09-09T13:39:39.708Z,17.30
2022-09-09T13:42:23.564Z,17.30
2022-09-09T13:44:51.978Z,17.10
2022-09-09T13:47:22.027Z,17.10
2022-09-09T13:49:50.495Z,17.10
2022-09-09T13:52:20.498Z,17.00
2022-09-09T13:54:52.290Z,16.90
2022-09-09T13:57:22.767Z,16.90
2022-09-09T14:00:04.582Z,16.90
2022-09-09T14:02:34.669Z,16.90
2022-09-09T14:05:03.235Z,17.00
2022-09-09T14:07:33.079Z,17.10
2022-09-09T14:10:03.136Z,17.40
2022-09-09T14:12:31.666Z,17.50
2022-09-09T14:15:00.766Z,17.60
2022-09-09T14:17:32.259Z,17.70
2022-09-09T14:20:01.199Z,17.80
2022-09-09T14:22:29.720Z,17.90
2022-09-09T14:24:58.705Z,18.10
2022-09-09T14:27:28.674Z,18.20
2022-09-09T14:29:58.770Z,18.30
2022-09-09T14:32:27.214Z,18.50
2022-09-09T14:34:55.596Z,18.60
2022-09-09T14:37:24.030Z,18.70
2022-09-09T14:39:52.725Z,18.80
2022-09-09T14:42:21.123Z,18.80
2022-09-09T14:44:51.005Z,18.70
2022-09-09T14:47:19.388Z,18.70
2022-09-09T14:49:50.652Z,18.60
2022-09-09T14:52:19.094Z,18.60
2022-09-09T14:54:47.402Z,18.60
2022-09-09T14:57:15.969Z,18.80
2022-09-09T14:59:44.521Z,19.00
2022-09-09T15:02:15.286Z,19.20
2022-09-09T15:04:43.819Z,19.30
2022-09-09T15:07:12.981Z,19.40
2022-09-09T15:09:41.490Z,19.50
2022-09-09T15:12:10.161Z,19.40
2022-09-09T15:14:39.431Z,19.40
2022-09-09T15:17:07.804Z,19.40
2022-09-09T15:19:37.663Z,19.40
2022-09-09T15:22:08.131Z,19.50
2022-09-09T15:24:37.001Z,19.60
2022-09-09T15:27:06.564Z,19.70
2022-09-09T15:29:34.927Z,19.90
2022-09-09T15:32:03.463Z,20.10
2022-09-09T15:34:32.204Z,20.20
2022-09-09T15:37:02.121Z,20.20
2022-09-09T15:39:30.623Z,20.20
2022-09-09T15:41:59.294Z,20.10
2022-09-09T15:44:27.678Z,20.10
2022-09-09T15:46:56.134Z,20.10
2022-09-09T15:49:26.609Z,20.20
2022-09-09T15:51:56.173Z,20.30
2022-09-09T15:54:27.352Z,20.40
2022-09-09T15:57:00.957Z,20.50
2022-09-09T15:59:30.877Z,20.70
2022-09-09T16:02:00.950Z,20.90
2022-09-09T16:04:31.089Z,21.10
2022-09-09T16:07:01.460Z,21.30
2022-09-09T16:09:32.693Z,21.50
2022-09-09T16:12:03.253Z,21.50
2022-09-09T16:14:35.237Z,21.50
2022-09-09T16:17:04.150Z,21.40
2022-09-09T16:19:32.567Z,21.30
2022-09-09T16:22:01.208Z,21.20
2022-09-09T16:24:31.231Z,21.10
2022-09-09T16:26:59.703Z,21.10
2022-09-09T16:29:28.556Z,21.10
2022-09-09T16:32:02.734Z,21.00
2022-09-09T16:34:32.184Z,21.00
2022-09-09T16:37:00.614Z,20.90
2022-09-09T16:39:30.639Z,20.90
2022-09-09T16:41:59.388Z,20.90
2022-09-09T16:44:28.987Z,20.90
2022-09-09T16:47:00.810Z,20.70
2022-09-09T16:49:29.753Z,20.60
2022-09-09T16:52:00.670Z,20.40
2022-09-09T16:54:30.736Z,20.30
2022-09-09T16:56:59.878Z,20.20
2022-09-09T16:59:28.680Z,20.00
2022-09-09T17:01:57.275Z,19.80
2022-09-09T17:04:29.107Z,19.70
2022-09-09T17:06:58.537Z,19.60
2022-09-09T17:09:30.267Z,19.40
2022-09-09T17:12:00.995Z,19.30
2022-09-09T17:14:29.479Z,19.20
2022-09-09T17:17:09.397Z,19.10
2022-09-09T17:19:46.951Z,19.10
2022-09-09T17:22:17.579Z,19.00
2022-09-09T17:24:46.819Z,19.00
2022-09-09T17:27:16.702Z,19.00
2022-09-09T17:29:45.712Z,18.90
2022-09-09T17:32:14.071Z,18.90
2022-09-09T17:34:42.520Z,18.90
2022-09-09T17:37:10.965Z,19.00
2022-09-09T17:39:39.410Z,18.90
2022-09-09T17:42:08.932Z,18.90
2022-09-09T17:44:39.994Z,18.80
2022-09-09T17:47:08.432Z,18.80
2022-09-09T17:49:36.766Z,18.70
2022-09-09T17:52:05.426Z,18.70
2022-09-09T17:54:34.903Z,18.70
2022-09-09T17:57:03.275Z,18.60
2022-09-09T17:59:32.195Z,18.60
2022-09-09T18:02:02.192Z,18.50
2022-09-09T18:04:30.670Z,18.50
2022-09-09T18:06:59.294Z,18.60
2022-09-09T18:09:29.195Z,18.60
2022-09-09T18:12:00.256Z,18.60
2022-09-09T18:14:31.228Z,18.60
2022-09-09T18:17:01.881Z,18.50
2022-09-09T18:19:33.007Z,18.60
2022-09-09T18:22:02.951Z,18.50
2022-09-09T18:24:33.012Z,18.50
2022-09-09T18:27:02.120Z,18.40
2022-09-09T18:29:31.279Z,18.40
2022-09-09T18:32:01.163Z,18.40
2022-09-09T18:34:30.335Z,18.40
2022-09-09T18:36:59.383Z,18.40
2022-09-09T18:39:29.873Z,18.40
2022-09-09T18:42:00.585Z,18.40
2022-09-09T18:44:31.458Z,18.50
2022-09-09T18:47:01.802Z,18.40
2022-09-09T18:49:30.363Z,18.10
2022-09-09T18:51:59.329Z,17.70
2022-09-09T18:54:31.407Z,17.50
2022-09-09T18:57:01.014Z,17.30
2022-09-09T18:59:29.769Z,17.10
2022-09-09T19:01:58.967Z,16.90
2022-09-09T19:04:28.890Z,16.90
2022-09-09T19:06:58.901Z,16.80
2022-09-09T19:09:31.220Z,16.80
2022-09-09T19:12:01.162Z,16.80
2022-09-09T19:14:30.353Z,16.80
2022-09-09T19:16:58.913Z,16.70
2022-09-09T19:19:31.285Z,16.70
2022-09-09T19:22:00.254Z,16.60
2022-09-09T19:24:30.381Z,16.60
2022-09-09T19:27:01.805Z,16.50
2022-09-09T19:29:32.491Z,16.40
2022-09-09T19:32:42.693Z,16.40
2022-09-09T19:34:52.803Z,16.30
2022-09-09T19:37:22.581Z,16.20
2022-09-09T19:39:51.512Z,16.10
2022-09-09T19:42:19.940Z,16.10
2022-09-09T19:44:49.351Z,16.00
2022-09-09T19:47:18.056Z,16.00
2022-09-09T19:49:47.725Z,15.90
2022-09-09T19:52:18.326Z,15.90
2022-09-09T19:54:47.419Z,15.90
2022-09-09T19:57:16.215Z,15.90
2022-09-09T19:59:44.891Z,15.90
2022-09-09T20:02:15.775Z,15.90
2022-09-09T20:04:44.882Z,15.80
2022-09-09T20:07:13.547Z,15.80
2022-09-09T20:09:43.505Z,15.80
2022-09-09T20:12:11.952Z,15.80
2022-09-09T20:14:40.484Z,15.70
2022-09-09T20:17:10.302Z,15.70
2022-09-09T20:19:39.986Z,15.70
2022-09-09T20:22:08.493Z,15.60
2022-09-09T20:24:38.262Z,15.60
2022-09-09T20:27:09.375Z,15.60
2022-09-09T20:29:38.348Z,15.50
2022-09-09T20:32:07.089Z,15.50
2022-09-09T20:34:35.496Z,15.50
2022-09-09T20:37:04.767Z,15.40
2022-09-09T20:39:33.382Z,15.30
2022-09-09T20:42:03.126Z,15.30
2022-09-09T20:44:33.219Z,15.20
2022-09-09T20:47:06.545Z,15.10
2022-09-09T20:49:36.328Z,15.00
2022-09-09T20:52:06.051Z,14.90
2022-09-09T20:54:38.865Z,14.80
2022-09-09T20:57:08.579Z,14.70
2022-09-09T20:59:38.411Z,14.70
2022-09-09T21:02:08.034Z,14.80
2022-09-09T21:04:38.149Z,14.80
2022-09-09T21:07:07.597Z,14.90
2022-09-09T21:09:36.272Z,14.90
2022-09-09T21:12:05.047Z,14.90
2022-09-09T21:14:33.467Z,14.90
2022-09-09T21:17:04.328Z,15.00
2022-09-09T21:19:32.662Z,14.90
2022-09-09T21:22:01.159Z,14.80
2022-09-09T21:24:29.645Z,14.80
2022-09-09T21:26:59.499Z,14.70
2022-09-09T21:29:27.859Z,14.70
2022-09-09T21:31:56.780Z,14.60
2022-09-09T21:34:26.691Z,14.60
2022-09-09T21:36:55.067Z,14.60
2022-09-09T21:39:23.471Z,14.60
2022-09-09T21:41:51.819Z,14.50
2022-09-09T21:44:21.184Z,14.50
2022-09-09T21:46:49.669Z,14.50
2022-09-09T21:49:18.091Z,14.50
2022-09-09T21:51:48.318Z,14.50
2022-09-09T21:54:16.925Z,14.50
2022-09-09T21:56:45.293Z,14.50
2022-09-09T21:59:13.838Z,14.50
2022-09-09T22:01:43.247Z,14.50
2022-09-09T22:04:11.699Z,14.50
2022-09-09T22:06:40.135Z,14.50
2022-09-09T22:09:10.092Z,14.50
2022-09-09T22:11:38.543Z,14.50
2022-09-09T22:14:06.899Z,14.50
2022-09-09T22:16:35.499Z,14.40
2022-09-09T22:19:03.980Z,14.40
2022-09-09T22:21:34.236Z,14.40
2022-09-09T22:24:05.336Z,14.40
2022-09-09T22:26:37.619Z,14.30
2022-09-09T22:29:07.364Z,14.30
2022-09-09T22:31:37.385Z,14.30
2022-09-09T22:34:06.807Z,14.20
2022-09-09T22:36:35.304Z,14.10
2022-09-09T22:39:03.868Z,14.00
2022-09-09T22:41:32.688Z,13.90
2022-09-09T22:44:02.815Z,13.90
2022-09-09T22:46:31.403Z,14.00
2022-09-09T22:48:59.961Z,14.00
2022-09-09T22:51:28.577Z,14.00
2022-09-09T22:53:57.878Z,14.10
2022-09-09T22:56:26.245Z,14.10
2022-09-09T22:58:56.398Z,14.10
2022-09-09T23:01:29.278Z,14.20
2022-09-09T23:03:59.569Z,14.20
2022-09-09T23:06:29.725Z,14.30
2022-09-09T23:09:00.296Z,14.30
2022-09-09T23:11:31.856Z,14.30
2022-09-09T23:14:02.151Z,14.40
2022-09-09T23:16:34.463Z,14.40
2022-09-09T23:19:03.320Z,14.50
2022-09-09T23:21:33.253Z,14.50
2022-09-09T23:24:01.973Z,14.50
2022-09-09T23:26:30.324Z,14.50
2022-09-09T23:29:00.163Z,14.50
2022-09-09T23:31:30.849Z,14.50
2022-09-09T23:34:01.560Z,14.50
2022-09-09T23:36:30.931Z,14.50
2022-09-09T23:39:02.191Z,14.50
2022-09-09T23:41:31.945Z,14.40
2022-09-09T23:44:00.931Z,14.40
2022-09-09T23:46:31.098Z,14.30
2022-09-09T23:49:02.633Z,14.20
2022-09-09T23:51:34.116Z,14.10
2022-09-09T23:54:05.035Z,14.10
2022-09-09T23:56:37.199Z,14.10
2022-09-09T23:59:06.405Z,14.00
